createdAt,value
2022-08-18T00:02:32.456Z,18.80
2022-08-18T00:05:35.209Z,18.90
2022-08-18T00:08:40.365Z,18.90
2022-08-18T00:11:45.389Z,18.90
2022-08-18T00:14:47.425Z,18.90
2022-08-18T00:17:49.593Z,18.90
2022-08-18T00:20:51.538Z,18.90
2022-08-18T00:23:53.586Z,18.80
2022-08-18T00:26:55.643Z,18.90
2022-08-18T00:30:02.194Z,18.80
2022-08-18T00:33:04.120Z,18.90
2022-08-18T00:36:06.085Z,18.80
2022-08-18T00:39:08.106Z,18.80
2022-08-18T00:42:26.951Z,18.80
2022-08-18T00:45:33.988Z,18.80
2022-08-18T00:48:36.080Z,18.80
2022-08-18T00:51:38.016Z,18.80
2022-08-18T00:54:41.476Z,18.80
2022-08-18T00:57:44.285Z,18.80
2022-08-18T01:00:46.832Z,18.80
2022-08-18T01:03:54.038Z,18.80
2022-08-18T01:07:00.778Z,18.80
2022-08-18T01:10:05.895Z,18.80
2022-08-18T01:13:08.117Z,18.80
2022-08-18T01:16:28.741Z,18.90
2022-08-18T01:19:48.980Z,18.90
2022-08-18T01:23:00.648Z,18.90
2022-08-18T01:26:06.436Z,18.90
2022-08-18T01:29:18.682Z,18.90
2022-08-18T01:32:22.570Z,18.90
2022-08-18T01:35:25.830Z,18.90
2022-08-18T01:38:27.854Z,19.00
2022-08-18T01:41:31.222Z,19.00
2022-08-18T01:44:33.921Z,19.00
2022-08-18T01:47:47.969Z,19.00
2022-08-18T01:50:53.622Z,18.90
2022-08-18T01:53:56.066Z,18.90
2022-08-18T01:56:57.989Z,18.90
2022-08-18T02:00:01.252Z,18.90
2022-08-18T02:03:07.285Z,18.90
2022-08-18T02:06:10.416Z,18.90
2022-08-18T02:09:16.599Z,18.90
2022-08-18T02:12:26.059Z,18.90
2022-08-18T02:15:28.321Z,18.90
2022-08-18T02:18:47.019Z,18.80
2022-08-18T02:21:52.148Z,18.90
2022-08-18T02:24:56.584Z,18.80
2022-08-18T02:27:58.597Z,18.90
2022-08-18T02:31:04.664Z,18.90
2022-08-18T02:34:06.535Z,18.80
2022-08-18T02:37:14.883Z,18.80
2022-08-18T02:40:18.041Z,18.80
2022-08-18T02:43:20.355Z,18.70
2022-08-18T02:46:22.324Z,18.70
2022-08-18T02:49:25.878Z,18.80
2022-08-18T02:52:34.067Z,18.70
2022-08-18T02:55:36.053Z,18.80
2022-08-18T02:58:37.960Z,18.80
2022-08-18T03:01:41.260Z,18.80
2022-08-18T03:04:43.367Z,18.80
2022-08-18T03:07:45.648Z,18.80
2022-08-18T03:10:51.217Z,18.70
2022-08-18T03:13:53.367Z,18.70
2022-08-18T03:16:55.614Z,18.70
2022-08-18T03:19:57.852Z,18.70
2022-08-18T03:23:09.527Z,18.70
2022-08-18T03:26:13.813Z,18.60
2022-08-18T03:29:15.930Z,18.60
2022-08-18T03:32:18.405Z,18.60
2022-08-18T03:35:20.385Z,18.60
2022-08-18T03:38:22.566Z,18.60
2022-08-18T03:41:56.843Z,18.60
2022-08-18T03:44:48.337Z,18.60
2022-08-18T03:47:52.674Z,18.60
2022-08-18T03:50:54.764Z,18.50
2022-08-18T03:54:00.488Z,18.50
2022-08-18T03:57:02.543Z,18.50
2022-08-18T04:00:04.941Z,18.60
2022-08-18T04:03:08.030Z,18.50
2022-08-18T04:06:36.082Z,18.50
2022-08-18T04:09:38.803Z,18.50
2022-08-18T04:12:41.450Z,18.50
2022-08-18T04:15:50.274Z,18.50
2022-08-18T04:18:52.889Z,18.40
2022-08-18T04:21:56.851Z,18.40
2022-08-18T04:24:58.853Z,18.40
2022-08-18T04:28:01.749Z,18.40
2022-08-18T04:31:09.219Z,18.40
2022-08-18T04:34:12.674Z,18.40
2022-08-18T04:37:15.595Z,18.40
2022-08-18T04:40:22.845Z,18.40
2022-08-18T04:43:26.968Z,18.30
2022-08-18T04:46:29.530Z,18.30
2022-08-18T04:49:32.207Z,18.30
2022-08-18T04:52:52.674Z,18.30
2022-08-18T04:55:55.452Z,18.30
2022-08-18T04:58:59.611Z,18.30
2022-08-18T05:02:05.859Z,18.30
2022-08-18T05:05:08.174Z,18.30
2022-08-18T05:08:12.564Z,18.30
2022-08-18T05:11:16.097Z,18.30
2022-08-18T05:14:19.067Z,18.30
2022-08-18T05:17:21.264Z,18.30
2022-08-18T05:20:23.391Z,18.30
2022-08-18T05:23:25.906Z,18.30
2022-08-18T05:26:28.077Z,18.30
2022-08-18T05:29:41.706Z,18.30
2022-08-18T05:32:50.416Z,18.40
2022-08-18T05:35:55.317Z,18.30
2022-08-18T05:39:07.010Z,18.30
2022-08-18T05:42:13.394Z,18.30
2022-08-18T05:45:17.145Z,18.30
2022-08-18T05:48:19.310Z,18.30
2022-08-18T05:51:28.351Z,18.30
2022-08-18T05:54:57.235Z,18.30
2022-08-18T05:58:05.757Z,18.30
2022-08-18T06:01:12.289Z,18.30
2022-08-18T06:04:32.738Z,18.30
2022-08-18T06:07:37.085Z,18.30
2022-08-18T06:10:42.605Z,18.40
2022-08-18T06:13:44.757Z,18.50
2022-08-18T06:16:54.747Z,18.50
2022-08-18T06:20:03.876Z,18.60
2022-08-18T06:23:15.200Z,18.60
2022-08-18T06:26:22.582Z,19.00
2022-08-18T06:29:27.552Z,19.50
2022-08-18T06:32:39.094Z,20.20
2022-08-18T06:35:51.941Z,20.80
2022-08-18T06:38:54.121Z,21.40
2022-08-18T06:41:56.120Z,22.10
2022-08-18T06:45:03.103Z,22.70
2022-08-18T06:48:15.689Z,23.20
2022-08-18T06:51:20.639Z,23.80
2022-08-18T06:54:22.749Z,24.10
2022-08-18T06:57:29.726Z,24.50
2022-08-18T07:00:32.916Z,25.10
2022-08-18T07:03:34.898Z,25.50
2022-08-18T07:06:38.491Z,25.80
2022-08-18T07:09:40.679Z,26.20
2022-08-18T07:12:42.629Z,26.50
2022-08-18T07:15:45.907Z,26.90
2022-08-18T07:18:47.908Z,27.30
2022-08-18T07:22:04.674Z,27.50
2022-08-18T07:25:07.053Z,27.90
2022-08-18T07:28:27.803Z,28.20
2022-08-18T07:31:42.359Z,28.50
2022-08-18T07:34:49.111Z,29.00
2022-08-18T07:37:58.362Z,29.40
2022-08-18T07:41:00.565Z,29.40
2022-08-18T07:44:08.723Z,29.30
2022-08-18T07:47:18.463Z,29.20
2022-08-18T07:50:55.192Z,29.70
2022-08-18T07:53:54.760Z,29.90
2022-08-18T07:56:58.167Z,29.90
2022-08-18T08:00:00.670Z,30.70
2022-08-18T08:03:21.338Z,31.20
2022-08-18T08:06:23.590Z,31.70
2022-08-18T08:09:44.516Z,32.40
2022-08-18T08:13:08.708Z,32.20
2022-08-18T08:16:30.285Z,32.30
2022-08-18T08:19:59.496Z,32.60
2022-08-18T08:23:23.456Z,33.10
2022-08-18T08:26:37.925Z,33.10
2022-08-18T08:29:54.261Z,33.70
2022-08-18T08:33:13.043Z,33.90
2022-08-18T08:36:19.376Z,34.20
2022-08-18T08:39:39.590Z,34.70
2022-08-18T08:43:01.136Z,35.00
2022-08-18T08:46:05.947Z,34.70
2022-08-18T08:49:11.940Z,35.20
2022-08-18T08:52:23.045Z,34.90
2022-08-18T08:55:26.728Z,35.20
2022-08-18T08:58:30.857Z,35.90
2022-08-18T09:01:32.805Z,35.80
2022-08-18T09:04:53.261Z,36.50
2022-08-18T09:08:14.935Z,37.10
2022-08-18T09:11:32.833Z,37.40
2022-08-18T09:14:57.470Z,37.90
2022-08-18T09:18:25.858Z,38.20
2022-08-18T09:21:46.471Z,38.50
2022-08-18T09:25:01.872Z,38.60
2022-08-18T09:28:27.980Z,37.90
2022-08-18T09:31:31.834Z,36.70
2022-08-18T09:34:45.462Z,37.30
2022-08-18T09:38:15.465Z,37.80
2022-08-18T09:41:34.823Z,38.10
2022-08-18T09:44:46.800Z,38.20
2022-08-18T09:47:54.824Z,38.50
2022-08-18T09:54:50.353Z,38.80
2022-08-18T09:58:11.290Z,38.80
2022-08-18T10:01:20.529Z,39.00
2022-08-18T10:04:29.088Z,39.10
2022-08-18T10:07:43.424Z,39.30
2022-08-18T10:14:23.666Z,38.90
2022-08-18T10:17:44.800Z,38.70
2022-08-18T10:21:10.254Z,38.90
2022-08-18T10:24:35.197Z,38.80
2022-08-18T10:27:45.898Z,39.00
2022-08-18T10:31:05.801Z,39.20
2022-08-18T10:34:19.202Z,39.70
2022-08-18T10:37:39.543Z,39.90
2022-08-18T10:40:43.782Z,39.90
2022-08-18T10:43:56.030Z,39.20
2022-08-18T10:47:00.858Z,39.30
2022-08-18T10:50:07.174Z,38.70
2022-08-18T10:53:39.885Z,39.40
2022-08-18T10:57:10.826Z,39.40
2022-08-18T11:00:15.573Z,39.20
2022-08-18T11:06:42.034Z,38.70
2022-08-18T11:09:56.913Z,39.10
2022-08-18T11:13:07.331Z,38.90
2022-08-18T11:16:19.115Z,39.00
2022-08-18T11:19:22.851Z,38.50
2022-08-18T11:22:32.433Z,38.20
2022-08-18T11:25:36.613Z,38.50
2022-08-18T11:28:41.185Z,38.60
2022-08-18T11:31:52.724Z,38.40
2022-08-18T11:34:58.212Z,38.00
2022-08-18T11:38:01.833Z,37.50
2022-08-18T11:41:13.585Z,37.20
2022-08-18T11:44:19.767Z,36.70
2022-08-18T11:47:23.602Z,36.20
2022-08-18T11:50:31.789Z,35.20
2022-08-18T11:53:44.171Z,34.60
2022-08-18T11:56:46.577Z,34.20
2022-08-18T12:03:15.674Z,33.40
2022-08-18T12:06:23.600Z,33.30
2022-08-18T12:12:55.834Z,32.90
2022-08-18T12:16:08.280Z,32.50
2022-08-18T12:19:13.156Z,32.60
2022-08-18T12:22:25.373Z,32.30
2022-08-18T12:25:27.271Z,31.80
2022-08-18T12:28:30.175Z,31.50
2022-08-18T12:31:47.526Z,31.50
2022-08-18T12:34:50.454Z,31.40
2022-08-18T12:38:04.987Z,31.10
2022-08-18T12:41:19.868Z,30.90
2022-08-18T12:44:27.193Z,30.60
2022-08-18T12:47:31.189Z,30.50
2022-08-18T12:50:42.655Z,30.50
2022-08-18T12:53:58.245Z,30.40
2022-08-18T12:57:02.643Z,30.40
2022-08-18T13:00:09.592Z,30.30
2022-08-18T13:03:19.529Z,30.20
2022-08-18T13:06:25.209Z,30.20
2022-08-18T13:09:35.056Z,30.20
2022-08-18T13:12:50.793Z,30.30
2022-08-18T13:16:01.109Z,30.20
2022-08-18T13:19:06.291Z,30.30
2022-08-18T13:22:12.477Z,30.20
2022-08-18T13:25:28.839Z,30.10
2022-08-18T13:28:51.590Z,30.00
2022-08-18T13:31:58.986Z,30.00
2022-08-18T13:35:02.664Z,30.10
2022-08-18T13:38:22.010Z,30.10
2022-08-18T13:44:31.043Z,30.10
2022-08-18T13:47:38.302Z,30.00
2022-08-18T13:50:40.493Z,30.00
2022-08-18T13:53:57.653Z,30.10
2022-08-18T13:57:06.556Z,30.30
2022-08-18T14:00:18.400Z,30.40
2022-08-18T14:03:42.510Z,30.60
2022-08-18T14:06:50.977Z,30.70
2022-08-18T14:09:53.745Z,30.50
2022-08-18T14:12:56.975Z,30.50
2022-08-18T14:15:59.321Z,30.50
2022-08-18T14:19:23.015Z,30.40
2022-08-18T14:22:43.794Z,30.40
2022-08-18T14:26:04.137Z,30.50
2022-08-18T14:29:06.305Z,30.60
2022-08-18T14:32:18.219Z,30.60
2022-08-18T14:35:33.386Z,30.40
2022-08-18T14:38:36.672Z,30.50
2022-08-18T14:41:40.873Z,30.60
2022-08-18T14:44:51.744Z,30.70
2022-08-18T14:48:14.538Z,30.80
2022-08-18T14:51:17.996Z,30.70
2022-08-18T14:54:28.391Z,30.80
2022-08-18T14:57:32.333Z,31.00
2022-08-18T15:00:53.695Z,31.10
2022-08-18T15:03:56.279Z,31.30
2022-08-18T15:06:58.767Z,31.40
2022-08-18T15:10:15.560Z,31.40
2022-08-18T15:13:18.904Z,31.50
2022-08-18T15:16:31.576Z,31.60
2022-08-18T15:19:58.969Z,31.70
2022-08-18T15:23:22.669Z,31.70
2022-08-18T15:26:31.114Z,31.60
2022-08-18T15:29:33.806Z,31.50
2022-08-18T15:32:35.834Z,31.30
2022-08-18T15:35:44.167Z,31.30
2022-08-18T15:38:46.602Z,31.40
2022-08-18T15:44:56.768Z,31.30
2022-08-18T15:47:59.127Z,31.20
2022-08-18T15:51:11.512Z,31.20
2022-08-18T15:54:14.142Z,31.20
2022-08-18T15:57:38.965Z,31.20
2022-08-18T16:00:42.349Z,31.10
2022-08-18T16:03:48.940Z,30.90
2022-08-18T16:06:52.624Z,31.00
2022-08-18T16:09:54.845Z,30.90
2022-08-18T16:12:58.426Z,30.80
2022-08-18T16:16:01.143Z,30.70
2022-08-18T16:19:07.036Z,30.60
2022-08-18T16:22:08.938Z,30.70
2022-08-18T16:25:11.065Z,30.70
2022-08-18T16:28:13.523Z,30.70
2022-08-18T16:31:16.010Z,30.70
2022-08-18T16:34:18.049Z,30.60
2022-08-18T16:37:19.948Z,30.40
2022-08-18T16:40:22.191Z,30.40
2022-08-18T16:43:24.346Z,30.40
2022-08-18T16:46:28.225Z,30.30
2022-08-18T16:49:30.322Z,30.30
2022-08-18T16:52:33.167Z,30.30
2022-08-18T16:55:35.486Z,30.20
2022-08-18T16:58:57.112Z,30.20
2022-08-18T17:02:17.457Z,30.10
2022-08-18T17:05:19.490Z,30.00
2022-08-18T17:08:21.414Z,29.90
2022-08-18T17:11:24.314Z,29.90
2022-08-18T17:14:27.953Z,29.80
2022-08-18T17:17:30.849Z,29.50
2022-08-18T17:20:36.152Z,29.50
2022-08-18T17:23:38.850Z,29.40
2022-08-18T17:26:49.856Z,29.50
2022-08-18T17:29:54.944Z,29.50
2022-08-18T17:33:01.381Z,29.40
2022-08-18T17:36:05.595Z,29.40
2022-08-18T17:39:08.562Z,29.30
2022-08-18T17:42:31.249Z,29.10
2022-08-18T17:45:36.717Z,29.10
2022-08-18T17:48:43.093Z,29.10
2022-08-18T17:51:52.445Z,29.00
2022-08-18T17:54:59.264Z,29.00
2022-08-18T17:58:10.410Z,28.90
2022-08-18T18:01:13.021Z,28.80
2022-08-18T18:04:15.300Z,28.80
2022-08-18T18:07:24.953Z,28.80
2022-08-18T18:10:34.089Z,28.70
2022-08-18T18:13:43.328Z,28.60
2022-08-18T18:16:58.614Z,28.40
2022-08-18T18:20:30.712Z,28.30
2022-08-18T18:23:34.850Z,28.20
2022-08-18T18:26:48.137Z,28.10
2022-08-18T18:30:02.348Z,28.10
2022-08-18T18:33:05.676Z,28.00
2022-08-18T18:36:08.111Z,28.00
2022-08-18T18:39:14.800Z,27.80
2022-08-18T18:42:19.495Z,27.80
2022-08-18T18:45:31.312Z,27.60
2022-08-18T18:48:53.547Z,27.50
2022-08-18T18:52:14.120Z,27.40
2022-08-18T18:55:19.546Z,27.30
2022-08-18T18:58:22.691Z,27.10
2022-08-18T19:01:39.097Z,27.00
2022-08-18T19:04:45.755Z,26.90
2022-08-18T19:07:56.922Z,26.80
2022-08-18T19:11:14.379Z,26.70
2022-08-18T19:14:26.706Z,26.60
2022-08-18T19:17:50.005Z,26.40
2022-08-18T19:21:45.963Z,26.30
2022-08-18T19:24:21.647Z,26.10
2022-08-18T19:27:35.299Z,25.90
2022-08-18T19:30:38.640Z,25.80
2022-08-18T19:33:43.551Z,25.70
2022-08-18T19:36:55.587Z,25.50
2022-08-18T19:40:17.162Z,25.40
2022-08-18T19:43:26.798Z,25.30
2022-08-18T19:46:34.839Z,25.20
2022-08-18T19:49:48.548Z,25.10
2022-08-18T19:53:18.287Z,25.00
2022-08-18T19:56:21.779Z,24.90
2022-08-18T19:59:24.659Z,24.80
2022-08-18T20:02:35.644Z,24.70
2022-08-18T20:05:40.574Z,24.70
2022-08-18T20:08:46.231Z,24.60
2022-08-18T20:12:01.270Z,24.60
2022-08-18T20:15:15.870Z,24.50
2022-08-18T20:18:22.751Z,24.40
2022-08-18T20:21:45.544Z,24.40
2022-08-18T20:24:51.927Z,24.40
2022-08-18T20:27:54.019Z,24.30
2022-08-18T20:31:05.035Z,24.30
2022-08-18T20:34:14.736Z,24.30
2022-08-18T20:37:25.719Z,24.30
2022-08-18T20:40:43.448Z,24.20
2022-08-18T20:43:46.058Z,24.20
2022-08-18T20:46:47.966Z,24.20
2022-08-18T20:49:50.986Z,24.20
2022-08-18T20:53:01.400Z,24.20
2022-08-18T20:56:32.713Z,24.20
2022-08-18T20:59:52.617Z,24.10
2022-08-18T21:02:56.077Z,24.10
2022-08-18T21:05:59.373Z,24.10
2022-08-18T21:09:01.351Z,24.10
2022-08-18T21:12:03.439Z,24.10
2022-08-18T21:15:10.832Z,24.10
2022-08-18T21:18:19.773Z,24.10
2022-08-18T21:21:35.976Z,24.10
2022-08-18T21:24:41.767Z,24.10
2022-08-18T21:27:45.803Z,24.10
2022-08-18T21:30:56.269Z,24.10
2022-08-18T21:34:41.761Z,24.10
2022-08-18T21:38:03.029Z,24.10
2022-08-18T21:41:05.070Z,24.10
2022-08-18T21:44:08.359Z,24.10
2022-08-18T21:47:23.792Z,24.10
2022-08-18T21:50:33.853Z,24.20
2022-08-18T21:53:38.375Z,24.10
2022-08-18T21:57:11.254Z,24.10
2022-08-18T22:00:37.198Z,24.10
2022-08-18T22:03:54.251Z,24.10
2022-08-18T22:06:57.927Z,24.10
2022-08-18T22:10:19.635Z,24.00
2022-08-18T22:13:41.431Z,24.00
2022-08-18T22:16:43.600Z,24.00
2022-08-18T22:19:45.591Z,24.00
2022-08-18T22:23:11.364Z,24.00
2022-08-18T22:26:34.570Z,24.10
2022-08-18T22:29:45.681Z,24.10
2022-08-18T22:32:48.006Z,24.10
2022-08-18T22:35:53.877Z,24.10
2022-08-18T22:38:56.140Z,24.10
2022-08-18T22:41:58.555Z,24.10
2022-08-18T22:45:04.911Z,24.00
2022-08-18T22:48:07.526Z,24.00
2022-08-18T22:51:09.864Z,24.00
2022-08-18T22:54:15.405Z,24.00
2022-08-18T22:57:17.880Z,23.90
2022-08-18T23:00:26.610Z,23.90
2022-08-18T23:03:28.665Z,23.90
2022-08-18T23:06:31.725Z,23.90
2022-08-18T23:09:34.151Z,23.90
2022-08-18T23:12:36.043Z,23.90
2022-08-18T23:15:47.158Z,23.80
2022-08-18T23:18:49.107Z,23.90
2022-08-18T23:21:52.598Z,23.80
2022-08-18T23:24:54.607Z,23.90
2022-08-18T23:27:56.751Z,23.90
2022-08-18T23:30:58.685Z,23.80
2022-08-18T23:34:01.005Z,23.80
2022-08-18T23:37:03.469Z,23.80
2022-08-18T23:40:05.887Z,23.80
2022-08-18T23:43:07.981Z,23.80
2022-08-18T23:46:24.728Z,23.80
2022-08-18T23:49:28.736Z,23.80
2022-08-18T23:52:30.841Z,23.80
2022-08-18T23:55:33.992Z,23.80
2022-08-18T23:58:35.895Z,23.80
